createdAt,value
2019-01-23T00:02:26.753Z,90.20
2019-01-23T00:04:58.531Z,90.10
2019-01-23T00:07:28.964Z,90.00
2019-01-23T00:09:59.548Z,90.00
2019-01-23T00:12:30.138Z,90.00
2019-01-23T00:15:00.621Z,90.00
2019-01-23T00:17:30.927Z,90.00
2019-01-23T00:20:01.360Z,89.70
2019-01-23T00:22:32.065Z,90.00
2019-01-23T00:25:02.443Z,90.00
2019-01-23T00:27:32.953Z,89.80
2019-01-23T00:30:03.378Z,90.00
2019-01-23T00:32:33.862Z,90.00
2019-01-23T00:35:04.528Z,90.00
2019-01-23T00:37:34.880Z,89.80
2019-01-23T00:40:06.070Z,89.80
2019-01-23T00:42:36.631Z,90.00
2019-01-23T00:45:08.005Z,90.00
2019-01-23T00:47:38.585Z,89.90
2019-01-23T00:50:09.539Z,89.90
2019-01-23T00:52:40.168Z,89.90
2019-01-23T00:55:12.701Z,89.90
2019-01-23T00:57:43.206Z,89.50
2019-01-23T01:00:16.939Z,89.60
2019-01-23T01:02:47.460Z,89.80
2019-01-23T01:05:18.613Z,89.60
2019-01-23T01:07:49.353Z,89.60
2019-01-23T01:10:19.689Z,89.40
2019-01-23T01:12:50.314Z,90.10
2019-01-23T01:15:20.969Z,90.00
2019-01-23T01:17:51.649Z,90.10
2019-01-23T01:20:22.141Z,89.90
2019-01-23T01:22:52.625Z,90.10
2019-01-23T01:25:23.128Z,90.10
2019-01-23T01:27:53.423Z,90.30
2019-01-23T01:30:24.847Z,90.40
2019-01-23T01:32:55.093Z,90.30
2019-01-23T01:35:25.648Z,90.30
2019-01-23T01:37:55.896Z,90.20
2019-01-23T01:40:26.235Z,90.20
2019-01-23T01:42:56.756Z,90.20
2019-01-23T01:45:27.115Z,90.10
2019-01-23T01:47:57.507Z,89.80
2019-01-23T01:50:28.216Z,90.00
2019-01-23T01:52:58.886Z,90.00
2019-01-23T01:55:29.304Z,89.80
2019-01-23T01:58:01.799Z,90.00
2019-01-23T02:00:32.326Z,90.00
2019-01-23T02:03:03.703Z,90.20
2019-01-23T02:05:34.176Z,90.20
2019-01-23T02:08:04.470Z,90.10
2019-01-23T02:10:35.060Z,90.10
2019-01-23T02:13:05.497Z,90.20
2019-01-23T02:15:35.893Z,90.10
2019-01-23T02:18:06.228Z,90.10
2019-01-23T02:20:38.364Z,90.00
2019-01-23T02:23:09.187Z,90.10
2019-01-23T02:25:39.522Z,90.10
2019-01-23T02:28:10.007Z,90.10
2019-01-23T02:30:40.840Z,90.10
2019-01-23T02:33:11.354Z,90.00
2019-01-23T02:35:42.194Z,89.70
2019-01-23T02:38:12.615Z,89.90
2019-01-23T02:40:42.849Z,89.60
2019-01-23T02:43:13.245Z,89.60
2019-01-23T02:45:43.816Z,89.90
2019-01-23T02:48:14.246Z,89.70
2019-01-23T02:50:44.923Z,89.80
2019-01-23T02:53:15.923Z,90.00
2019-01-23T02:55:46.470Z,89.80
2019-01-23T02:58:18.006Z,89.60
2019-01-23T03:00:48.358Z,89.10
2019-01-23T03:03:18.958Z,88.90
2019-01-23T03:05:49.595Z,90.00
2019-01-23T03:08:20.575Z,89.80
2019-01-23T03:10:51.606Z,89.70
2019-01-23T03:13:22.767Z,89.40
2019-01-23T03:15:54.505Z,89.40
2019-01-23T03:18:24.982Z,89.00
2019-01-23T03:20:55.649Z,89.00
2019-01-23T03:23:26.297Z,89.00
2019-01-23T03:25:56.789Z,89.10
2019-01-23T03:28:27.360Z,89.20
2019-01-23T03:30:58.651Z,89.10
2019-01-23T03:33:29.212Z,89.10
2019-01-23T03:35:59.620Z,89.10
2019-01-23T03:38:30.445Z,89.20
2019-01-23T03:41:00.847Z,89.50
2019-01-23T03:43:31.399Z,89.70
2019-01-23T03:46:01.814Z,89.20
2019-01-23T03:48:32.576Z,89.20
2019-01-23T03:51:03.030Z,88.80
2019-01-23T03:53:33.636Z,88.20
2019-01-23T03:56:04.259Z,88.80
2019-01-23T03:58:34.651Z,89.10
2019-01-23T04:01:05.163Z,89.40
2019-01-23T04:03:35.762Z,89.40
2019-01-23T04:06:06.272Z,89.30
2019-01-23T04:08:36.681Z,88.90
2019-01-23T04:11:07.354Z,88.90
2019-01-23T04:13:37.820Z,88.10
2019-01-23T04:16:08.164Z,88.30
2019-01-23T04:18:38.725Z,88.40
2019-01-23T04:21:09.108Z,88.60
2019-01-23T04:23:39.868Z,88.60
2019-01-23T04:26:10.297Z,88.20
2019-01-23T04:28:40.982Z,88.10
2019-01-23T04:31:11.544Z,88.00
2019-01-23T04:33:43.012Z,87.60
2019-01-23T04:36:13.771Z,87.30
2019-01-23T04:38:44.128Z,87.40
2019-01-23T04:41:14.693Z,87.60
2019-01-23T04:43:45.257Z,87.80
2019-01-23T04:46:15.688Z,87.70
2019-01-23T04:48:45.980Z,87.70
2019-01-23T04:51:35.284Z,87.70
2019-01-23T04:54:08.582Z,87.80
2019-01-23T04:56:39.212Z,87.70
2019-01-23T04:59:09.456Z,87.80
2019-01-23T05:01:39.815Z,88.00
2019-01-23T05:04:10.315Z,88.20
2019-01-23T05:06:42.272Z,88.10
2019-01-23T05:09:13.982Z,88.10
2019-01-23T05:11:44.600Z,88.00
2019-01-23T05:14:15.302Z,88.40
2019-01-23T05:16:45.562Z,87.90
2019-01-23T05:19:15.912Z,88.10
2019-01-23T05:21:46.553Z,88.20
2019-01-23T05:24:17.108Z,88.00
2019-01-23T05:26:47.730Z,87.90
2019-01-23T05:29:18.141Z,87.60
2019-01-23T05:31:48.564Z,88.30
2019-01-23T05:34:19.112Z,88.00
2019-01-23T05:36:49.413Z,88.10
2019-01-23T05:39:19.902Z,88.20
2019-01-23T05:41:50.431Z,88.20
2019-01-23T05:44:21.003Z,88.10
2019-01-23T05:46:51.374Z,88.10
2019-01-23T05:49:22.032Z,88.20
2019-01-23T05:51:52.360Z,88.30
2019-01-23T05:54:22.978Z,88.30
2019-01-23T05:56:53.457Z,88.30
2019-01-23T05:59:23.810Z,89.20
2019-01-23T06:01:54.734Z,88.20
2019-01-23T06:04:25.371Z,88.20
2019-01-23T06:06:56.087Z,88.70
2019-01-23T06:09:26.796Z,89.20
2019-01-23T06:11:57.428Z,89.10
2019-01-23T06:14:27.898Z,89.20
2019-01-23T06:16:58.204Z,89.10
2019-01-23T06:19:28.503Z,89.00
2019-01-23T06:21:58.801Z,88.60
2019-01-23T06:24:29.289Z,88.80
2019-01-23T06:26:59.890Z,88.80
2019-01-23T06:29:30.244Z,88.90
2019-01-23T06:32:00.923Z,89.10
2019-01-23T06:34:31.426Z,89.20
2019-01-23T06:37:01.830Z,88.80
2019-01-23T06:39:32.314Z,88.30
2019-01-23T06:42:02.950Z,88.00
2019-01-23T06:44:33.262Z,87.90
2019-01-23T06:47:03.876Z,87.70
2019-01-23T06:49:34.372Z,88.00
2019-01-23T06:52:04.956Z,87.70
2019-01-23T06:54:35.335Z,87.40
2019-01-23T06:57:05.655Z,87.70
2019-01-23T06:59:36.222Z,87.50
2019-01-23T07:02:06.530Z,87.30
2019-01-23T07:04:37.166Z,87.60
2019-01-23T07:07:08.120Z,87.40
2019-01-23T07:09:38.919Z,87.30
2019-01-23T07:12:09.391Z,87.70
2019-01-23T07:14:39.912Z,87.20
2019-01-23T07:17:10.235Z,87.00
2019-01-23T07:19:40.742Z,87.20
2019-01-23T07:22:11.211Z,87.20
2019-01-23T07:24:41.471Z,87.20
2019-01-23T07:27:11.960Z,87.10
2019-01-23T07:29:42.619Z,87.00
2019-01-23T07:32:13.049Z,87.10
2019-01-23T07:34:43.532Z,86.90
2019-01-23T07:37:13.971Z,87.30
2019-01-23T07:39:45.031Z,87.00
2019-01-23T07:42:15.989Z,87.10
2019-01-23T07:44:46.258Z,86.90
2019-01-23T07:47:16.800Z,86.80
2019-01-23T07:49:47.541Z,87.10
2019-01-23T07:52:17.894Z,87.20
2019-01-23T07:54:48.498Z,86.80
2019-01-23T07:57:18.954Z,86.70
2019-01-23T07:59:49.736Z,86.40
2019-01-23T08:02:20.162Z,86.10
2019-01-23T08:04:50.604Z,86.70
2019-01-23T08:07:20.938Z,86.50
2019-01-23T08:09:51.302Z,86.40
2019-01-23T08:12:21.996Z,86.10
2019-01-23T08:14:52.693Z,85.70
2019-01-23T08:17:23.956Z,85.60
2019-01-23T08:19:54.355Z,85.00
2019-01-23T08:22:25.897Z,84.90
2019-01-23T08:24:56.428Z,84.50
2019-01-23T08:27:27.160Z,84.60
2019-01-23T08:29:57.809Z,85.60
2019-01-23T08:32:28.532Z,84.80
2019-01-23T08:34:59.092Z,85.00
2019-01-23T08:37:30.261Z,85.50
2019-01-23T08:40:00.696Z,85.40
2019-01-23T08:42:31.117Z,85.20
2019-01-23T08:45:01.447Z,84.60
2019-01-23T08:47:31.997Z,84.40
2019-01-23T08:50:04.531Z,84.20
2019-01-23T08:52:35.135Z,85.20
2019-01-23T08:55:06.059Z,83.90
2019-01-23T08:57:36.585Z,83.20
2019-01-23T09:00:08.069Z,82.50
2019-01-23T09:02:38.571Z,82.70
2019-01-23T09:05:09.467Z,82.10
2019-01-23T09:07:40.097Z,82.30
2019-01-23T09:10:13.768Z,82.00
2019-01-23T09:12:45.268Z,82.10
2019-01-23T09:15:16.037Z,82.80
2019-01-23T09:17:46.631Z,82.10
2019-01-23T09:20:18.014Z,82.50
2019-01-23T09:22:48.703Z,82.40
2019-01-23T09:25:20.989Z,82.60
2019-01-23T09:27:51.620Z,82.80
2019-01-23T09:30:25.236Z,82.40
2019-01-23T09:33:38.875Z,82.70
2019-01-23T09:36:34.801Z,82.80
2019-01-23T09:39:55.375Z,82.70
2019-01-23T09:42:43.369Z,82.40
2019-01-23T09:45:43.732Z,82.60
2019-01-23T09:48:58.849Z,82.60
2019-01-23T09:52:05.262Z,82.10
2019-01-23T09:54:35.737Z,82.00
2019-01-23T09:57:06.565Z,81.70
2019-01-23T09:59:37.513Z,81.30
2019-01-23T10:02:08.276Z,81.00
2019-01-23T10:04:38.883Z,81.10
2019-01-23T10:07:09.261Z,81.40
2019-01-23T10:09:39.740Z,81.40
2019-01-23T10:12:10.369Z,81.10
2019-01-23T10:14:40.909Z,80.70
2019-01-23T10:17:11.779Z,80.50
2019-01-23T10:19:42.912Z,80.90
2019-01-23T10:22:14.838Z,80.60
2019-01-23T10:24:45.776Z,80.20
2019-01-23T10:27:16.715Z,80.00
2019-01-23T10:29:47.647Z,80.00
2019-01-23T10:32:18.858Z,79.80
2019-01-23T10:34:49.713Z,80.10
2019-01-23T10:37:20.677Z,79.60
2019-01-23T10:39:52.361Z,80.00
2019-01-23T10:42:23.326Z,80.20
2019-01-23T10:44:54.405Z,80.00
2019-01-23T10:47:25.475Z,78.90
2019-01-23T10:49:57.357Z,79.50
2019-01-23T10:52:28.365Z,78.70
2019-01-23T10:54:59.420Z,78.80
2019-01-23T10:57:30.502Z,78.80
2019-01-23T11:00:01.464Z,79.20
2019-01-23T11:02:32.681Z,79.30
2019-01-23T11:05:03.789Z,78.80
2019-01-23T11:07:34.747Z,79.10
2019-01-23T11:10:06.951Z,79.10
2019-01-23T11:12:37.965Z,78.70
2019-01-23T11:15:08.906Z,78.60
2019-01-23T11:17:39.971Z,78.80
2019-01-23T11:20:13.430Z,78.70
2019-01-23T11:22:44.387Z,78.70
2019-01-23T11:25:15.340Z,78.30
2019-01-23T11:27:46.580Z,78.00
2019-01-23T11:30:20.442Z,77.80
2019-01-23T11:32:51.545Z,77.90
2019-01-23T11:35:22.628Z,77.50
2019-01-23T11:37:53.762Z,77.40
2019-01-23T11:40:26.960Z,77.20
2019-01-23T11:42:57.957Z,77.10
2019-01-23T11:45:29.612Z,76.30
2019-01-23T11:48:00.673Z,76.10
2019-01-23T11:50:31.565Z,76.00
2019-01-23T11:53:02.550Z,75.90
2019-01-23T11:55:33.695Z,75.80
2019-01-23T11:58:04.652Z,75.80
2019-01-23T12:00:36.499Z,75.60
2019-01-23T12:03:07.412Z,76.00
2019-01-23T12:05:38.328Z,75.60
2019-01-23T12:08:09.245Z,75.60
2019-01-23T12:10:40.088Z,75.10
2019-01-23T12:13:11.072Z,74.90
2019-01-23T12:15:42.253Z,74.90
2019-01-23T12:18:13.466Z,75.30
2019-01-23T12:20:44.413Z,75.70
2019-01-23T12:23:15.321Z,75.60
2019-01-23T12:25:46.319Z,75.50
2019-01-23T12:28:17.153Z,74.90
2019-01-23T12:30:48.130Z,75.30
2019-01-23T12:33:19.036Z,75.60
2019-01-23T12:35:49.995Z,75.40
2019-01-23T12:38:20.847Z,75.20
2019-01-23T12:40:51.762Z,75.20
2019-01-23T12:43:22.632Z,75.00
2019-01-23T12:45:53.560Z,74.60
2019-01-23T12:48:24.348Z,74.40
2019-01-23T12:50:55.214Z,74.80
2019-01-23T12:53:26.096Z,73.90
2019-01-23T12:55:57.107Z,73.80
2019-01-23T12:58:28.081Z,73.40
2019-01-23T13:00:58.972Z,73.00
2019-01-23T13:03:29.877Z,72.60
2019-01-23T13:06:00.692Z,72.30
2019-01-23T13:08:31.622Z,72.00
2019-01-23T13:11:02.477Z,71.60
2019-01-23T13:13:33.388Z,71.20
2019-01-23T13:16:04.349Z,70.70
2019-01-23T13:18:35.418Z,70.40
2019-01-23T13:21:06.348Z,70.20
2019-01-23T13:23:37.227Z,70.60
2019-01-23T13:26:08.185Z,70.00
2019-01-23T13:28:40.383Z,70.20
2019-01-23T13:31:11.288Z,70.70
2019-01-23T13:33:42.243Z,70.90
2019-01-23T13:36:13.185Z,71.30
2019-01-23T13:38:44.120Z,71.70
2019-01-23T13:41:15.080Z,72.20
2019-01-23T13:43:46.026Z,72.40
2019-01-23T13:46:17.041Z,72.40
2019-01-23T13:48:47.827Z,72.40
2019-01-23T13:51:18.747Z,72.50
2019-01-23T13:53:49.686Z,71.90
2019-01-23T13:56:20.576Z,72.10
2019-01-23T13:58:51.638Z,72.00
2019-01-23T14:01:22.456Z,71.70
2019-01-23T14:03:53.420Z,71.30
2019-01-23T14:06:24.544Z,71.60
2019-01-23T14:08:55.798Z,71.90
2019-01-23T14:11:26.993Z,72.10
2019-01-23T14:13:57.898Z,72.20
2019-01-23T14:16:28.712Z,72.60
2019-01-23T14:18:59.930Z,72.80
2019-01-23T14:21:30.922Z,72.90
2019-01-23T14:24:01.911Z,73.20
2019-01-23T14:26:32.795Z,73.30
2019-01-23T14:29:03.831Z,73.50
2019-01-23T14:31:34.888Z,73.50
2019-01-23T14:34:05.811Z,73.40
2019-01-23T14:36:36.776Z,73.60
2019-01-23T14:39:09.200Z,73.70
2019-01-23T14:41:40.439Z,73.70
2019-01-23T14:44:11.463Z,73.90
2019-01-23T14:46:42.336Z,74.00
2019-01-23T14:49:13.174Z,73.70
2019-01-23T14:51:44.014Z,73.60
2019-01-23T14:54:14.898Z,74.00
2019-01-23T14:56:45.838Z,73.80
2019-01-23T14:59:16.847Z,73.70
2019-01-23T15:01:48.010Z,73.70
2019-01-23T15:04:19.357Z,73.90
2019-01-23T15:06:50.077Z,74.00
2019-01-23T15:09:22.157Z,74.10
2019-01-23T15:11:53.166Z,74.20
2019-01-23T15:14:24.238Z,74.00
2019-01-23T15:16:55.165Z,74.20
2019-01-23T15:19:26.260Z,74.10
2019-01-23T15:21:57.031Z,74.20
2019-01-23T15:24:27.762Z,73.70
2019-01-23T15:26:58.590Z,73.70
2019-01-23T15:29:29.593Z,73.40
2019-01-23T15:32:00.573Z,73.20
2019-01-23T15:34:32.595Z,73.40
2019-01-23T15:37:04.516Z,73.00
2019-01-23T15:39:35.331Z,74.00
2019-01-23T15:42:06.314Z,72.80
2019-01-23T15:44:37.214Z,72.80
2019-01-23T15:47:08.194Z,73.10
2019-01-23T15:49:39.218Z,73.30
2019-01-23T15:52:10.134Z,73.20
2019-01-23T15:54:40.802Z,73.20
2019-01-23T15:57:11.812Z,73.40
2019-01-23T15:59:42.689Z,73.70
2019-01-23T16:02:13.766Z,73.30
2019-01-23T16:04:44.655Z,73.50
2019-01-23T16:07:15.852Z,73.70
2019-01-23T16:09:46.928Z,73.70
2019-01-23T16:12:17.772Z,74.00
2019-01-23T16:14:48.564Z,73.70
2019-01-23T16:17:19.466Z,74.10
2019-01-23T16:19:50.422Z,74.10
2019-01-23T16:22:21.433Z,74.00
2019-01-23T16:24:52.318Z,74.10
2019-01-23T16:27:23.281Z,74.50
2019-01-23T16:29:54.210Z,75.00
2019-01-23T16:32:31.276Z,74.00
2019-01-23T16:34:57.664Z,74.00
2019-01-23T16:37:28.483Z,73.60
2019-01-23T16:39:59.396Z,73.40
2019-01-23T16:42:30.340Z,73.20
2019-01-23T16:45:01.466Z,73.00
2019-01-23T16:47:32.538Z,72.60
2019-01-23T16:50:03.450Z,72.70
2019-01-23T16:52:34.292Z,72.20
2019-01-23T16:55:06.633Z,72.90
2019-01-23T16:57:37.617Z,72.90
2019-01-23T17:00:09.939Z,73.30
2019-01-23T17:02:41.117Z,73.50
2019-01-23T17:05:14.805Z,73.30
2019-01-23T17:07:45.647Z,73.50
2019-01-23T17:10:18.157Z,73.50
2019-01-23T17:12:48.978Z,73.70
2019-01-23T17:15:19.882Z,74.20
2019-01-23T17:17:51.038Z,73.70
2019-01-23T17:20:24.129Z,73.60
2019-01-23T17:22:55.003Z,73.40
2019-01-23T17:25:25.937Z,72.60
2019-01-23T17:27:56.694Z,71.40
2019-01-23T17:30:28.285Z,71.10
2019-01-23T17:32:59.271Z,70.70
2019-01-23T17:35:30.219Z,70.50
2019-01-23T17:38:01.204Z,70.60
2019-01-23T17:40:32.266Z,70.20
2019-01-23T17:43:03.261Z,70.10
2019-01-23T17:45:36.313Z,69.70
2019-01-23T17:48:08.625Z,70.10
2019-01-23T17:50:39.337Z,70.20
2019-01-23T17:53:09.688Z,70.20
2019-01-23T17:55:40.862Z,70.60
2019-01-23T17:58:13.451Z,70.70
2019-01-23T18:00:54.805Z,70.90
2019-01-23T18:03:25.350Z,71.00
2019-01-23T18:05:55.846Z,71.00
2019-01-23T18:08:26.536Z,70.80
2019-01-23T18:10:56.820Z,70.50
2019-01-23T18:13:27.256Z,70.20
2019-01-23T18:16:03.392Z,70.20
2019-01-23T18:18:33.995Z,70.40
2019-01-23T18:21:04.407Z,70.40
2019-01-23T18:23:34.859Z,70.60
2019-01-23T18:26:05.459Z,70.60
2019-01-23T18:28:35.768Z,70.80
2019-01-23T18:31:36.290Z,70.80
2019-01-23T18:34:32.968Z,70.70
2019-01-23T18:37:51.206Z,70.70
2019-01-23T18:41:02.041Z,70.80
2019-01-23T18:44:18.380Z,71.30
2019-01-23T18:47:01.480Z,71.30
2019-01-23T18:50:07.957Z,71.40
2019-01-23T18:52:38.372Z,70.40
2019-01-23T18:55:11.311Z,70.50
2019-01-23T18:57:41.805Z,70.30
2019-01-23T19:00:16.360Z,70.10
2019-01-23T19:02:46.888Z,69.60
2019-01-23T19:05:18.529Z,69.10
2019-01-23T19:07:50.489Z,69.30
2019-01-23T19:10:20.973Z,69.60
2019-01-23T19:12:51.216Z,69.50
2019-01-23T19:15:21.600Z,69.80
2019-01-23T19:17:52.030Z,70.00
2019-01-23T19:20:22.476Z,70.10
2019-01-23T19:22:53.776Z,70.20
2019-01-23T19:25:24.175Z,70.00
2019-01-23T19:27:54.928Z,69.60
2019-01-23T19:30:25.280Z,69.30
2019-01-23T19:32:55.945Z,70.60
2019-01-23T19:35:26.584Z,69.90
2019-01-23T19:37:57.020Z,70.00
2019-01-23T19:40:29.576Z,69.90
2019-01-23T19:43:00.081Z,70.10
2019-01-23T19:45:30.584Z,71.00
2019-01-23T19:48:00.989Z,70.50
2019-01-23T19:50:31.639Z,70.40
2019-01-23T19:53:01.874Z,70.30
2019-01-23T19:55:32.466Z,69.90
2019-01-23T19:58:04.509Z,70.10
2019-01-23T20:00:35.137Z,70.30
2019-01-23T20:03:05.960Z,70.20
2019-01-23T20:05:36.486Z,69.70
2019-01-23T20:08:06.850Z,69.50
2019-01-23T20:10:37.497Z,69.30
2019-01-23T20:13:08.182Z,69.30
2019-01-23T20:15:38.428Z,69.50
2019-01-23T20:18:10.410Z,69.60
2019-01-23T20:20:41.015Z,69.60
2019-01-23T20:23:11.601Z,69.10
2019-01-23T20:25:41.942Z,69.00
2019-01-23T20:28:13.690Z,68.80
2019-01-23T20:30:45.252Z,68.60
2019-01-23T20:33:16.694Z,68.60
2019-01-23T20:35:47.212Z,68.30
2019-01-23T20:38:17.447Z,68.40
2019-01-23T20:40:47.823Z,68.50
2019-01-23T20:43:18.321Z,68.50
2019-01-23T20:45:48.627Z,68.60
2019-01-23T20:48:18.958Z,68.90
2019-01-23T20:50:49.251Z,68.90
2019-01-23T20:53:20.005Z,68.90
2019-01-23T20:55:50.381Z,68.80
2019-01-23T20:58:20.884Z,69.10
2019-01-23T21:00:51.272Z,69.40
2019-01-23T21:03:21.732Z,69.30
2019-01-23T21:05:53.077Z,69.00
2019-01-23T21:08:23.560Z,69.20
2019-01-23T21:10:54.167Z,69.10
2019-01-23T21:13:24.671Z,69.20
2019-01-23T21:15:55.009Z,69.00
2019-01-23T21:18:25.499Z,68.80
2019-01-23T21:20:56.091Z,69.00
2019-01-23T21:23:26.797Z,69.00
2019-01-23T21:25:57.108Z,69.00
2019-01-23T21:28:27.516Z,69.20
2019-01-23T21:30:58.473Z,69.40
2019-01-23T21:33:28.901Z,69.30
2019-01-23T21:35:59.404Z,69.70
2019-01-23T21:38:29.895Z,69.60
2019-01-23T21:41:00.194Z,69.70
2019-01-23T21:43:31.795Z,70.00
2019-01-23T21:46:02.233Z,69.70
2019-01-23T21:48:32.855Z,69.50
2019-01-23T21:51:03.489Z,69.60
2019-01-23T21:53:34.053Z,69.20
2019-01-23T21:56:04.533Z,69.60
2019-01-23T21:58:35.147Z,69.80
2019-01-23T22:01:05.889Z,70.10
2019-01-23T22:03:36.436Z,70.10
2019-01-23T22:06:07.062Z,69.90
2019-01-23T22:08:37.489Z,70.00
2019-01-23T22:11:08.204Z,70.10
2019-01-23T22:13:39.017Z,69.90
2019-01-23T22:16:09.417Z,70.20
2019-01-23T22:18:39.925Z,70.10
2019-01-23T22:21:10.255Z,70.20
2019-01-23T22:23:40.654Z,70.00
2019-01-23T22:26:10.870Z,70.80
2019-01-23T22:28:41.429Z,70.10
2019-01-23T22:31:11.713Z,70.20
2019-01-23T22:33:42.131Z,70.50
2019-01-23T22:36:12.535Z,70.20
2019-01-23T22:38:43.017Z,70.20
2019-01-23T22:41:13.845Z,70.20
2019-01-23T22:43:44.275Z,70.40
2019-01-23T22:46:14.769Z,70.60
2019-01-23T22:48:45.269Z,70.40
2019-01-23T22:51:15.524Z,70.60
2019-01-23T22:53:45.975Z,70.50
2019-01-23T22:56:16.347Z,70.50
2019-01-23T22:58:46.734Z,70.40
2019-01-23T23:01:26.235Z,70.20
2019-01-23T23:04:02.966Z,70.50
2019-01-23T23:06:28.737Z,70.80
2019-01-23T23:09:00.139Z,70.80
2019-01-23T23:11:30.475Z,71.30
2019-01-23T23:14:01.030Z,70.40
2019-01-23T23:16:31.434Z,70.30
2019-01-23T23:19:01.855Z,70.20
2019-01-23T23:21:33.999Z,70.70
2019-01-23T23:24:04.384Z,70.80
2019-01-23T23:26:35.185Z,70.50
2019-01-23T23:29:07.054Z,70.50
2019-01-23T23:31:37.430Z,71.30
2019-01-23T23:34:10.147Z,70.60
2019-01-23T23:36:40.091Z,70.80
2019-01-23T23:39:10.625Z,70.70
2019-01-23T23:41:41.062Z,71.10
2019-01-23T23:44:11.642Z,70.80
2019-01-23T23:46:42.155Z,70.90
2019-01-23T23:49:12.636Z,71.60
2019-01-23T23:51:43.247Z,71.60
2019-01-23T23:54:13.971Z,72.60
2019-01-23T23:56:44.769Z,71.70
2019-01-23T23:59:15.586Z,71.90
